Time;durP1;ratioP1;P1;durP2;ratioP2;P2;SDS_P1;SDS_P2;PMS_P1;PMS_P2;Temp;Humidity;BMP_temperature;BMP_pressure;BME280_temperature;BME280_humidity;BME280_pressure;Samples;Min_cycle;Max_cycle;Signal;HPM_P1;HPM_P2
2021/12/14 00:00:26;;;;;;;13.10;8.30;;;;;;;11.61;68.52;102381.41;4945406;28;96953;-87
2021/12/14 00:02:52;;;;;;;16.10;7.00;;;;;;;11.53;68.75;102396.69;4930954;28;96709;-87
2021/12/14 00:05:21;;;;;;;10.47;7.03;;;;;;;11.57;68.61;102369.75;4946833;28;96649;-87
2021/12/14 00:07:47;;;;;;;11.43;7.47;;;;;;;11.57;68.62;102388.28;4943116;28;98525;-87
2021/12/14 00:10:48;;;;;;;13.37;8.27;;;;;;;11.58;68.54;102381.53;4943526;28;97052;-87
2021/12/14 00:15:49;;;;;;;11.47;6.87;;;;;;;11.54;68.62;102376.16;4945470;28;98412;-87
2021/12/14 00:18:14;;;;;;;12.67;8.23;;;;;;;11.58;68.71;102392.56;4942633;28;99794;-87
2021/12/14 00:20:47;;;;;;;14.57;8.77;;;;;;;11.62;68.42;102385.66;4945117;28;96703;-87
2021/12/14 00:25:54;;;;;;;9.50;6.77;;;;;;;11.59;68.29;102374.81;4943471;28;97398;-88
2021/12/14 00:28:27;;;;;;;13.17;7.50;;;;;;;11.54;68.42;102373.41;4943035;28;99710;-88
2021/12/14 00:30:55;;;;;;;11.07;7.57;;;;;;;11.56;68.44;102379.25;4944548;28;96680;-87
2021/12/14 00:33:24;;;;;;;10.07;7.50;;;;;;;11.49;68.55;102374.00;4966248;28;96961;-87
2021/12/14 00:35:50;;;;;;;11.70;7.87;;;;;;;11.54;68.64;102370.66;4943410;28;96841;-87
2021/12/14 00:38:21;;;;;;;9.40;7.27;;;;;;;11.58;68.45;102374.03;4940566;28;101390;-87
2021/12/14 00:40:58;;;;;;;11.70;7.93;;;;;;;11.60;68.43;102370.84;4943614;28;97521;-86
2021/12/14 00:43:24;;;;;;;11.03;7.00;;;;;;;11.57;68.55;102386.28;4942477;28;97623;-87
2021/12/14 00:45:50;;;;;;;11.87;7.20;;;;;;;11.59;68.35;102367.31;4942805;28;96874;-87
2021/12/14 00:48:16;;;;;;;11.90;7.83;;;;;;;11.57;68.56;102369.75;4960142;28;96926;-88
2021/12/14 00:50:47;;;;;;;12.17;7.47;;;;;;;11.52;68.38;102367.59;4943621;28;96961;-86
2021/12/14 00:53:13;;;;;;;12.27;8.10;;;;;;;11.54;68.41;102373.41;4956993;28;97039;-86
2021/12/14 00:55:42;;;;;;;9.50;7.23;;;;;;;11.52;68.55;102373.09;4946178;28;97040;-86
2021/12/14 00:58:08;;;;;;;8.97;6.97;;;;;;;11.53;68.37;102391.16;4942943;28;99489;-86
2021/12/14 01:00:39;;;;;;;12.80;8.33;;;;;;;11.55;68.30;102388.75;4942190;28;97814;-87
2021/12/14 01:03:07;;;;;;;9.90;7.03;;;;;;;11.52;68.53;102373.09;4943728;28;97136;-86
2021/12/14 01:05:36;;;;;;;10.00;7.03;;;;;;;11.53;68.40;102391.16;4959739;28;100809;-86
2021/12/14 01:08:05;;;;;;;10.03;6.97;;;;;;;11.54;68.34;102378.94;4946786;28;97658;-87
2021/12/14 01:10:50;;;;;;;9.50;7.20;;;;;;;11.57;68.17;102377.25;4942989;28;96836;-87
2021/12/14 01:13:19;;;;;;;9.77;7.60;;;;;;;11.54;68.33;102375.41;4942430;28;96818;-86
2021/12/14 01:16:14;;;;;;;10.30;7.00;;;;;;;11.54;68.18;102376.16;4959057;28;99094;-86
2021/12/14 01:18:48;;;;;;;11.33;7.17;;;;;;;11.55;68.37;102391.50;4942761;28;100938;-86
2021/12/14 01:21:42;;;;;;;13.83;8.57;;;;;;;11.56;68.06;102395.78;4941328;28;97005;-87
2021/12/14 01:24:34;;;;;;;10.17;7.43;;;;;;;11.58;68.21;102387.81;4942717;28;96815;-87
2021/12/14 01:26:59;;;;;;;11.87;7.77;;;;;;;11.57;68.09;102388.28;4943110;28;102138;-86
2021/12/14 01:29:25;;;;;;;12.90;7.80;;;;;;;11.57;68.33;102391.81;4944115;28;96902;-85
2021/12/14 01:31:52;;;;;;;10.83;7.80;;;;;;;11.61;68.13;102389.66;4943997;28;96823;-86
2021/12/14 01:34:20;;;;;;;10.53;8.10;;;;;;;11.61;68.12;102392.44;4958926;28;97305;-87
2021/12/14 01:36:51;;;;;;;9.10;7.50;;;;;;;11.60;68.21;102432.22;4942644;28;97122;-86
2021/12/14 01:41:59;;;;;;;10.10;7.73;;;;;;;11.62;67.99;102384.94;4946487;28;96959;-86
2021/12/14 01:44:27;;;;;;;10.40;7.60;;;;;;;11.53;68.06;102371.88;4960181;28;98937;-85
2021/12/14 01:46:59;;;;;;;12.50;8.10;;;;;;;11.54;68.00;102387.19;4945738;28;96780;-85
2021/12/14 01:49:27;;;;;;;13.47;7.30;;;;;;;11.54;68.09;102383.66;4946463;28;97355;-87
2021/12/14 01:51:56;;;;;;;10.07;6.97;;;;;;;11.50;68.10;102364.53;4947006;28;97221;-86
2021/12/14 01:54:28;;;;;;;12.57;7.97;;;;;;;11.60;67.97;102368.81;4946141;28;97854;-86
2021/12/14 01:56:54;;;;;;;14.30;8.33;;;;;;;11.58;67.96;102362.22;4945152;28;101228;-87
2021/12/14 01:59:27;;;;;;;11.90;8.10;;;;;;;11.59;68.08;102361.03;4943926;28;98250;-86
2021/12/14 02:01:57;;;;;;;12.37;7.67;;;;;;;11.56;67.98;102351.66;4964382;28;97332;-86
2021/12/14 02:04:27;;;;;;;13.73;8.37;;;;;;;11.56;67.88;102343.41;4942432;28;97593;-86
2021/12/14 02:06:58;;;;;;;9.63;7.60;;;;;;;11.55;67.75;102344.63;4945415;28;100044;-86
2021/12/14 02:09:27;;;;;;;13.97;8.10;;;;;;;11.50;68.04;102363.75;4945316;28;96960;-86
2021/12/14 02:11:55;;;;;;;11.63;7.33;;;;;;;11.52;67.96;102337.28;4946124;28;97745;-86
2021/12/14 02:14:22;;;;;;;11.00;7.40;;;;;;;11.51;68.01;102338.47;4945427;28;97066;-85
2021/12/14 02:16:51;;;;;;;11.20;7.50;;;;;;;11.52;68.08;102344.78;4944572;28;98695;-86
2021/12/14 02:19:17;;;;;;;13.43;7.90;;;;;;;11.51;67.80;102337.75;4946657;28;97131;-87
2021/12/14 02:21:45;;;;;;;15.80;8.57;;;;;;;11.50;67.96;102339.72;4965170;28;96835;-86
2021/12/14 02:24:12;;;;;;;13.17;8.93;;;;;;;11.46;67.96;102339.09;4943141;28;96845;-86
2021/12/14 02:26:42;;;;;;;15.43;8.73;;;;;;;11.48;67.83;102333.13;4963737;28;99847;-87
2021/12/14 02:29:10;;;;;;;9.17;7.33;;;;;;;11.50;67.93;102314.16;4945944;28;99795;-86
2021/12/14 02:31:38;;;;;;;11.90;8.53;;;;;;;11.48;67.94;102305.56;4944822;28;97120;-86
2021/12/14 02:34:05;;;;;;;11.80;7.80;;;;;;;11.46;67.70;102303.28;4944767;28;97563;-86
2021/12/14 02:36:36;;;;;;;9.90;7.67;;;;;;;11.47;67.78;102298.50;4946027;28;96776;-87
2021/12/14 02:39:12;;;;;;;11.73;7.30;;;;;;;11.45;67.87;102304.50;4944736;28;102873;-86
2021/12/14 02:42:05;;;;;;;11.90;7.67;;;;;;;11.47;67.49;102281.97;4944924;28;98002;-86
2021/12/14 02:44:30;;;;;;;11.03;7.13;;;;;;;11.43;67.80;102287.66;4941292;28;98841;-89
2021/12/14 02:47:05;;;;;;;10.07;7.23;;;;;;;11.44;67.54;102283.69;4944529;28;98219;-87
2021/12/14 02:49:34;;;;;;;12.50;7.97;;;;;;;11.44;67.56;102272.66;4945941;28;97373;-89
2021/12/14 02:52:06;;;;;;;13.40;9.10;;;;;;;11.41;67.78;102268.06;4960108;28;98143;-87
2021/12/14 02:54:36;;;;;;;10.97;7.67;;;;;;;11.40;67.65;102249.22;4944976;28;97197;-87
2021/12/14 02:57:07;;;;;;;14.50;8.47;;;;;;;11.38;67.72;102241.41;4943044;28;97204;-87
2021/12/14 02:59:36;;;;;;;11.00;7.77;;;;;;;11.41;67.90;102248.75;4942493;28;99122;-87
2021/12/14 03:02:06;;;;;;;13.87;8.23;;;;;;;11.41;67.77;102251.50;4958089;28;96728;-87
2021/12/14 03:04:39;;;;;;;14.20;8.40;;;;;;;11.45;67.68;102252.13;4954892;28;97163;-87
2021/12/14 03:07:05;;;;;;;13.67;8.57;;;;;;;11.42;67.67;102238.50;4955808;28;99164;-88
2021/12/14 03:12:08;;;;;;;12.60;8.03;;;;;;;11.42;67.41;102235.75;4945622;28;97065;-87
2021/12/14 03:14:34;;;;;;;17.53;9.40;;;;;;;11.39;67.65;102247.69;4943240;28;98793;-87
2021/12/14 03:17:00;;;;;;;14.67;8.30;;;;;;;11.41;67.66;102242.47;4944295;28;98027;-87
2021/12/14 03:19:26;;;;;;;14.57;8.37;;;;;;;11.42;67.64;102233.00;4941216;28;98587;-87
2021/12/14 03:21:52;;;;;;;14.87;9.10;;;;;;;11.44;67.42;102239.59;4956892;28;97115;-87
2021/12/14 03:24:19;;;;;;;16.60;9.40;;;;;;;11.46;67.39;102241.88;4959873;28;97051;-88
2021/12/14 03:26:49;;;;;;;13.67;9.00;;;;;;;11.44;67.24;102242.34;4943181;28;97147;-87
2021/12/14 03:29:20;;;;;;;13.10;8.37;;;;;;;11.45;67.45;102245.84;4940688;28;103620;-86
2021/12/14 03:31:48;;;;;;;18.80;8.50;;;;;;;11.41;67.26;102248.75;4943156;28;97215;-88
2021/12/14 03:34:15;;;;;;;12.50;7.67;;;;;;;11.45;67.14;102259.63;4941946;28;96996;-87
2021/12/14 03:36:52;;;;;;;20.17;9.23;;;;;;;11.43;67.25;102254.56;4959496;28;96837;-88
2021/12/14 03:39:34;;;;;;;14.77;8.17;;;;;;;11.43;67.29;102254.56;4940951;28;97432;-86
2021/12/14 03:42:07;;;;;;;14.10;8.77;;;;;;;11.45;67.33;102257.63;4940269;28;98538;-86
2021/12/14 03:44:40;;;;;;;14.07;8.13;;;;;;;11.42;67.30;102269.59;4939201;28;98140;-86
2021/12/14 03:47:20;;;;;;;11.50;7.60;;;;;;;11.44;67.04;102266.38;4958946;28;100592;-87
2021/12/14 03:49:50;;;;;;;16.50;9.30;;;;;;;11.44;67.15;102260.84;4943391;28;96997;-87
2021/12/14 03:52:20;;;;;;;12.37;8.10;;;;;;;11.40;67.48;102291.31;4944287;28;96893;-87
2021/12/14 03:54:46;;;;;;;16.87;8.13;;;;;;;11.45;67.23;102329.28;4940245;28;97048;-86
2021/12/14 03:57:12;;;;;;;16.60;7.90;;;;;;;11.44;67.23;102278.16;4942847;28;99276;-87
2021/12/14 03:59:38;;;;;;;14.77;8.30;;;;;;;11.46;67.21;102285.97;4961944;28;99688;-87
2021/12/14 04:02:07;;;;;;;15.73;8.80;;;;;;;11.46;67.09;102297.00;4944820;28;97127;-87
2021/12/14 04:04:37;;;;;;;12.73;8.10;;;;;;;11.44;67.25;102280.94;4965708;28;97068;-88
2021/12/14 04:07:06;;;;;;;13.33;8.87;;;;;;;11.44;67.21;102269.91;4936678;28;97628;-87
2021/12/14 04:09:34;;;;;;;12.60;8.37;;;;;;;11.45;67.23;102279.69;4943031;28;97814;-87
2021/12/14 04:12:01;;;;;;;16.33;9.40;;;;;;;11.45;67.16;102303.72;4941354;28;96828;-87
2021/12/14 04:14:29;;;;;;;15.60;9.00;;;;;;;11.45;67.07;102293.47;4943003;28;96960;-87
2021/12/14 04:16:56;;;;;;;19.10;9.10;;;;;;;11.44;67.08;102311.25;4959317;28;97896;-86
2021/12/14 04:19:25;;;;;;;12.90;8.40;;;;;;;11.42;67.06;102280.63;4959027;28;96736;-87
2021/12/14 04:21:52;;;;;;;15.40;8.10;;;;;;;11.42;67.18;102279.84;4939571;28;97176;-87
2021/12/14 04:24:23;;;;;;;13.70;8.00;;;;;;;11.37;67.07;102267.44;4943501;28;97158;-86
2021/12/14 04:26:50;;;;;;;13.37;7.70;;;;;;;11.37;67.17;102267.44;4935405;28;96966;-87
2021/12/14 04:29:16;;;;;;;13.43;8.53;;;;;;;11.38;67.06;102257.19;4940469;28;99588;-87
2021/12/14 04:31:44;;;;;;;10.70;6.60;;;;;;;11.32;67.19;102252.28;4942994;28;97078;-87
2021/12/14 04:34:11;;;;;;;14.27;8.20;;;;;;;11.33;67.31;102262.06;4960939;28;97310;-87
2021/12/14 04:36:39;;;;;;;14.03;7.63;;;;;;;11.30;67.21;102282.28;4961715;28;100777;-88
2021/12/14 04:39:38;;;;;;;13.13;7.53;;;;;;;11.32;67.21;102260.53;4941267;28;99732;-89
2021/12/14 04:53:15;;;;;;;16.53;8.97;;;;;;;11.26;66.75;102243.09;4937153;28;96863;-87
2021/12/14 04:55:43;;;;;;;14.57;7.53;;;;;;;11.26;66.94;102256.88;4934597;28;96930;-87
2021/12/14 04:58:10;;;;;;;15.93;7.83;;;;;;;11.30;67.04;102242.94;4943193;28;98126;-86
2021/12/14 05:00:46;;;;;;;14.30;7.90;;;;;;;11.30;66.78;102251.19;4945039;28;97506;-87
2021/12/14 05:03:37;;;;;;;12.67;7.17;;;;;;;11.29;66.64;102241.41;4939642;28;98855;-86
2021/12/14 05:06:19;;;;;;;14.23;7.70;;;;;;;11.30;66.98;102229.16;4940044;28;96978;-87
2021/12/14 05:11:54;;;;;;;11.90;6.90;;;;;;;11.27;66.88;102239.09;4946582;28;100045;-85
2021/12/14 05:14:23;;;;;;;12.17;7.10;;;;;;;11.22;67.09;102222.44;4941207;28;97299;-86
2021/12/14 05:16:54;;;;;;;11.57;7.60;;;;;;;11.19;66.89;102237.09;4938085;28;96841;-87
2021/12/14 05:19:56;;;;;;;14.67;8.03;;;;;;;11.13;67.07;102239.72;4913838;28;103084;-86
2021/12/14 05:22:44;;;;;;;12.03;6.87;;;;;;;11.10;67.36;102231.59;4875396;28;101666;-88
2021/12/14 05:25:20;;;;;;;13.40;6.90;;;;;;;11.11;67.22;102241.41;4948939;28;99925;-87
2021/12/14 05:27:51;;;;;;;12.67;7.10;;;;;;;11.13;67.20;102245.22;4962193;28;97197;-89
2021/12/14 05:30:28;;;;;;;12.93;7.90;;;;;;;11.13;67.27;102247.97;4961496;28;98908;-88
2021/12/14 05:33:05;;;;;;;12.30;7.30;;;;;;;11.14;67.12;102254.22;4936474;28;98631;-88
2021/12/14 05:35:31;;;;;;;10.90;7.47;;;;;;;11.12;67.18;102246.44;4945062;28;97070;-88
2021/12/14 05:37:58;;;;;;;13.60;8.17;;;;;;;11.09;67.24;102252.88;4944841;28;96931;-88
2021/12/14 05:43:07;;;;;;;10.70;7.43;;;;;;;11.10;67.41;102253.63;4948259;28;97274;-88
2021/12/14 05:45:34;;;;;;;11.30;7.50;;;;;;;11.12;67.23;102262.19;4948612;28;98648;-88
2021/12/14 05:48:00;;;;;;;11.53;7.03;;;;;;;11.07;67.33;102279.34;4947847;28;96859;-88
2021/12/14 05:50:37;;;;;;;16.37;8.00;;;;;;;11.11;67.23;102255.94;4944929;28;98358;-88
2021/12/14 05:53:05;;;;;;;13.30;8.87;;;;;;;11.10;67.06;102253.63;4945321;28;97506;-88
2021/12/14 05:55:35;;;;;;;13.07;8.23;;;;;;;11.11;67.22;102252.41;4944050;28;96944;-89
2021/12/14 05:58:01;;;;;;;13.50;8.37;;;;;;;11.11;67.12;102250.44;4965685;28;96966;-88
2021/12/14 06:00:29;;;;;;;16.23;9.00;;;;;;;11.13;67.11;102247.22;4949302;28;98546;-88
2021/12/14 06:02:55;;;;;;;17.40;9.03;;;;;;;11.12;67.13;102251.16;4965551;28;98595;-89
2021/12/14 06:05:22;;;;;;;11.83;8.30;;;;;;;11.10;67.00;102248.88;4947850;28;96725;-88
2021/12/14 06:07:49;;;;;;;14.97;7.90;;;;;;;11.08;67.21;102261.56;4966898;28;97892;-88
2021/12/14 06:10:16;;;;;;;12.90;8.30;;;;;;;11.13;67.15;102249.97;4944440;28;97989;-89
2021/12/14 06:12:43;;;;;;;15.40;9.10;;;;;;;11.14;66.91;102243.22;4950512;28;97430;-88
2021/12/14 06:15:15;;;;;;;14.10;8.97;;;;;;;11.13;66.94;102236.97;4946393;28;98775;-89
2021/12/14 06:17:41;;;;;;;12.23;7.87;;;;;;;11.12;66.96;102240.94;4960904;28;99425;-88
2021/12/14 06:20:14;;;;;;;14.70;9.20;;;;;;;11.14;66.80;102243.22;4964177;28;99880;-87
2021/12/14 06:22:41;;;;;;;14.93;9.27;;;;;;;11.12;67.04;102229.91;4947022;28;97227;-89
2021/12/14 06:25:13;;;;;;;13.80;9.00;;;;;;;11.16;66.96;102232.53;4946809;28;96891;-88
2021/12/14 06:27:38;;;;;;;15.90;9.13;;;;;;;11.16;67.04;102238.03;4955076;28;97019;-88
2021/12/14 06:30:11;;;;;;;13.13;9.00;;;;;;;11.13;66.79;102236.97;4962958;28;98834;-89
2021/12/14 06:32:44;;;;;;;15.60;9.80;;;;;;;11.12;66.88;102240.16;4950302;28;97519;-88
2021/12/14 06:35:16;;;;;;;13.40;9.60;;;;;;;11.10;66.99;102248.88;4957831;28;97061;-88
2021/12/14 06:40:42;;;;;;;11.67;8.10;;;;;;;11.11;66.52;102249.66;4945442;28;97126;-89
2021/12/14 06:43:15;;;;;;;13.97;9.30;;;;;;;11.10;67.15;102256.38;4961787;28;101629;-89
2021/12/14 06:45:44;;;;;;;13.73;8.93;;;;;;;11.10;66.96;102253.63;4945124;28;97353;-89
2021/12/14 06:48:20;;;;;;;15.37;8.93;;;;;;;11.09;66.87;102257.63;4942810;28;96945;-88
2021/12/14 06:50:45;;;;;;;13.07;8.43;;;;;;;11.11;66.99;102258.69;4948685;28;100990;-88
2021/12/14 06:53:14;;;;;;;13.10;9.07;;;;;;;11.13;67.04;102258.22;4956812;28;102396;-88
2021/12/14 06:55:39;;;;;;;13.63;8.43;;;;;;;11.12;66.86;102273.97;4944271;28;97024;-89
2021/12/14 06:58:24;;;;;;;15.03;9.17;;;;;;;11.13;66.79;102266.50;4962337;28;97107;-88
2021/12/14 07:01:01;;;;;;;13.53;8.00;;;;;;;11.13;66.75;102275.53;4945230;28;101712;-90
2021/12/14 07:04:02;;;;;;;12.23;8.20;;;;;;;11.13;66.46;102280.25;4941464;28;100705;-89
2021/12/14 07:06:36;;;;;;;13.23;8.63;;;;;;;11.14;66.79;102281.78;4914986;28;100508;-89
2021/12/14 07:09:15;;;;;;;15.23;8.53;;;;;;;11.14;66.66;102270.75;4947353;28;97923;-88
2021/12/14 07:11:47;;;;;;;12.57;8.50;;;;;;;11.12;66.88;102268.47;4945441;28;97949;-87
2021/12/14 07:14:24;;;;;;;11.70;8.30;;;;;;;11.14;66.66;102270.75;4945606;28;96822;-89
2021/12/14 07:16:50;;;;;;;16.13;9.00;;;;;;;11.13;67.00;102280.25;4946268;28;96795;-88
2021/12/14 07:19:16;;;;;;;15.60;8.63;;;;;;;11.13;66.98;102308.59;4947272;28;96907;-89
2021/12/14 07:21:45;;;;;;;12.30;7.57;;;;;;;11.14;66.92;102279.03;4950243;28;98604;-89
2021/12/14 07:24:23;;;;;;;15.03;8.80;;;;;;;11.13;66.65;102275.53;4947554;28;100495;-88
2021/12/14 07:27:16;;;;;;;12.83;8.70;;;;;;;11.12;66.69;102289.75;4944804;28;96796;-88
2021/12/14 07:29:41;;;;;;;11.43;7.80;;;;;;;11.12;66.92;102285.00;4945908;28;97264;-88
2021/12/14 07:32:07;;;;;;;14.77;8.87;;;;;;;11.14;66.99;102298.31;4945957;28;96975;-88
2021/12/14 07:34:33;;;;;;;12.77;8.20;;;;;;;11.14;66.89;102295.56;4962836;28;98398;-88
2021/12/14 07:36:58;;;;;;;13.73;8.50;;;;;;;11.17;66.92;102289.16;4933415;28;96709;-89
2021/12/14 07:39:24;;;;;;;12.77;8.23;;;;;;;11.17;66.75;102291.91;4946378;28;96763;-88
2021/12/14 07:41:52;;;;;;;13.97;8.73;;;;;;;11.17;66.82;102278.91;4943829;28;97016;-88
2021/12/14 07:44:32;;;;;;;14.30;8.63;;;;;;;11.19;66.61;102287.47;4961532;28;97701;-89
2021/12/14 07:47:06;;;;;;;14.17;9.27;;;;;;;11.20;66.72;102288.25;4945008;28;97894;-88
2021/12/14 07:49:54;;;;;;;19.43;10.57;;;;;;;11.21;66.60;102296.03;4946428;28;96879;-89
2021/12/14 07:52:22;;;;;;;13.43;9.93;;;;;;;11.20;66.67;102302.75;4942948;28;102821;-89
2021/12/14 07:54:55;;;;;;;14.67;9.70;;;;;;;11.13;66.88;102281.03;4943152;28;97740;-88
2021/12/14 07:57:32;;;;;;;15.97;9.97;;;;;;;11.18;66.80;102302.44;4943755;28;97037;-90
2021/12/14 08:00:02;;;;;;;16.00;10.07;;;;;;;11.16;66.92;102287.63;4958265;28;97149;-88
2021/12/14 08:02:33;;;;;;;14.60;9.70;;;;;;;11.11;66.75;102283.47;4941066;28;97014;-88
2021/12/14 08:05:16;;;;;;;14.27;10.20;;;;;;;11.10;66.72;102287.44;4959495;28;98777;-88
2021/12/14 08:07:47;;;;;;;16.97;9.93;;;;;;;11.09;66.95;102290.66;4945687;28;96740;-88
2021/12/14 08:10:39;;;;;;;22.00;10.30;;;;;;;11.07;66.83;102298.63;4942161;28;96911;-87
2021/12/14 08:13:13;;;;;;;16.03;10.13;;;;;;;11.06;67.03;102295.09;4936063;28;103845;-88
2021/12/14 08:15:43;;;;;;;17.40;10.40;;;;;;;11.07;67.05;102304.13;4945469;28;98575;-89
2021/12/14 08:18:13;;;;;;;15.00;9.87;;;;;;;11.06;66.92;102297.84;4944668;28;96962;-88
2021/12/14 08:20:51;;;;;;;14.70;9.47;;;;;;;11.09;66.88;102304.44;4944327;28;97354;-88
2021/12/14 08:23:37;;;;;;;18.00;10.93;;;;;;;11.07;66.60;102306.88;4944321;28;97988;-89
2021/12/14 08:26:10;;;;;;;15.80;9.43;;;;;;;11.04;66.84;102297.53;4957324;28;101683;-90
2021/12/14 08:28:59;;;;;;;19.03;11.20;;;;;;;11.07;66.92;102304.88;4959213;28;96927;-86
2021/12/14 08:31:32;;;;;;;17.87;10.83;;;;;;;11.10;66.99;102294.94;4959705;28;98930;-88
2021/12/14 08:34:01;;;;;;;17.10;10.87;;;;;;;11.10;67.12;102305.97;4960419;28;96822;-88
2021/12/14 08:36:40;;;;;;;16.83;10.43;;;;;;;11.17;66.80;102302.91;4944689;28;96853;-88
2021/12/14 08:39:14;;;;;;;18.13;11.17;;;;;;;11.22;66.92;102310.59;4943378;28;97194;-87
2021/12/14 08:41:57;;;;;;;17.87;11.37;;;;;;;11.23;66.74;102312.88;4940742;28;96965;-88
2021/12/14 08:44:37;;;;;;;14.93;10.80;;;;;;;11.25;66.80;102320.69;4946353;28;102236;-89
2021/12/14 08:47:19;;;;;;;19.70;10.90;;;;;;;11.24;66.79;102330.19;4954268;28;102714;-88
2021/12/14 08:49:45;;;;;;;13.27;9.43;;;;;;;11.27;66.94;102324.50;4962487;28;96837;-89
2021/12/14 08:52:11;;;;;;;16.40;11.00;;;;;;;11.28;66.77;102330.81;4948442;28;97327;-88
2021/12/14 08:54:38;;;;;;;15.43;10.97;;;;;;;11.30;66.72;102329.13;4962860;28;98890;-90
2021/12/14 08:57:19;;;;;;;15.27;10.43;;;;;;;11.34;66.63;102351.00;4947912;28;96821;-88
2021/12/14 08:59:49;;;;;;;16.10;10.70;;;;;;;11.33;66.74;102339.22;4953119;28;96982;-88
2021/12/14 09:02:16;;;;;;;17.27;10.00;;;;;;;11.42;66.68;102338.50;4944516;28;97210;-88
2021/12/14 09:04:56;;;;;;;16.33;10.23;;;;;;;11.45;66.59;102328.53;4947988;28;96956;-88
2021/12/14 09:07:26;;;;;;;18.70;10.60;;;;;;;11.47;66.59;102326.06;4950648;28;102601;-89
2021/12/14 09:09:53;;;;;;;15.10;10.20;;;;;;;11.44;66.74;102316.75;4947926;28;96789;-88
2021/12/14 09:12:24;;;;;;;18.27;11.67;;;;;;;11.54;66.72;102323.78;4950236;28;97307;-86
2021/12/14 09:14:52;;;;;;;18.60;11.77;;;;;;;11.58;66.61;102332.69;4948430;28;102232;-88
2021/12/14 09:17:22;;;;;;;18.40;11.37;;;;;;;11.58;66.53;102327.16;4962421;28;100762;-90
2021/12/14 09:19:58;;;;;;;15.80;10.70;;;;;;;11.58;66.65;102338.19;4945242;28;96847;-87
2021/12/14 09:22:33;;;;;;;17.03;11.53;;;;;;;11.60;66.63;102346.78;4948818;28;96948;-87
2021/12/14 09:25:00;;;;;;;14.57;10.93;;;;;;;11.62;66.72;102333.28;4946374;28;101871;-89
2021/12/14 09:27:28;;;;;;;16.77;11.10;;;;;;;11.62;66.78;102329.78;4948713;28;100240;-88
2021/12/14 09:29:55;;;;;;;14.70;10.30;;;;;;;11.67;66.85;102340.22;4946934;28;96808;-89
2021/12/14 09:32:27;;;;;;;20.00;11.60;;;;;;;11.73;66.67;102325.38;4946528;28;97281;-88
2021/12/14 09:34:55;;;;;;;16.80;11.27;;;;;;;11.78;66.74;102327.53;4977018;28;99033;-89
2021/12/14 09:37:22;;;;;;;16.00;11.80;;;;;;;11.76;66.71;102327.22;4944940;28;97719;-89
2021/12/14 09:39:51;;;;;;;17.47;11.73;;;;;;;11.71;66.55;102336.09;4948460;28;96654;-90
2021/12/14 09:42:24;;;;;;;16.53;11.60;;;;;;;11.78;66.55;102335.78;4965788;28;97037;-88
2021/12/14 09:44:52;;;;;;;17.47;12.30;;;;;;;11.80;66.75;102355.41;4961193;28;97754;-90
2021/12/14 09:47:22;;;;;;;16.67;11.30;;;;;;;11.82;66.77;102332.88;4961946;28;96702;-88
2021/12/14 09:49:49;;;;;;;14.40;11.37;;;;;;;11.82;66.54;102339.16;4944873;28;96955;-89
2021/12/14 09:52:39;;;;;;;17.37;12.17;;;;;;;11.84;66.51;102333.16;4944957;28;96968;-88
2021/12/14 09:55:10;;;;;;;18.57;12.30;;;;;;;11.87;66.70;102346.81;4942274;28;100942;-88
2021/12/14 09:57:41;;;;;;;17.47;11.77;;;;;;;11.97;66.79;102331.03;4937881;28;97918;-90
2021/12/14 10:00:40;;;;;;;13.27;10.47;;;;;;;11.99;66.43;102340.38;4946301;28;97373;-88
2021/12/14 10:03:06;;;;;;;15.73;11.40;;;;;;;11.98;66.43;102316.78;4933748;28;97427;-88
2021/12/14 10:05:43;;;;;;;16.40;12.10;;;;;;;12.01;66.33;102315.84;4964692;28;97712;-88
2021/12/14 10:08:14;;;;;;;22.90;11.73;;;;;;;12.02;66.47;102324.91;4943936;28;100561;-89
2021/12/14 10:10:46;;;;;;;16.33;11.40;;;;;;;12.00;66.53;102325.38;4945994;28;96887;-89
2021/12/14 10:13:12;;;;;;;19.03;12.60;;;;;;;12.01;66.41;102323.38;4943432;28;97326;-89
2021/12/14 10:15:42;;;;;;;16.30;12.57;;;;;;;11.99;66.46;102323.81;4944376;28;101067;-88
2021/12/14 10:18:20;;;;;;;17.30;12.30;;;;;;;12.01;66.53;102334.41;4945967;28;97848;-88
2021/12/14 10:21:01;;;;;;;17.77;12.40;;;;;;;11.97;66.47;102326.28;4946773;28;98073;-88
2021/12/14 10:23:27;;;;;;;19.20;12.63;;;;;;;11.99;66.50;102323.06;4944509;28;96926;-89
2021/12/14 10:25:54;;;;;;;21.27;13.63;;;;;;;12.00;66.56;102310.81;4945768;28;98320;-88
2021/12/14 10:28:20;;;;;;;17.10;12.07;;;;;;;12.03;66.67;102315.41;4949649;28;96762;-88
2021/12/14 10:30:53;;;;;;;15.80;11.90;;;;;;;12.08;66.52;102319.53;4943955;28;96852;-88
2021/12/14 10:33:19;;;;;;;17.33;11.90;;;;;;;12.09;66.41;102321.84;4946205;28;96904;-88
2021/12/14 10:35:50;;;;;;;16.17;12.73;;;;;;;12.09;66.50;102313.56;4946809;28;99945;-87
2021/12/14 10:38:27;;;;;;;16.67;12.90;;;;;;;12.09;66.50;102310.78;4945708;28;97824;-89
2021/12/14 10:43:49;;;;;;;17.23;12.97;;;;;;;12.11;66.51;102308.34;4944886;28;97530;-88
2021/12/14 10:46:37;;;;;;;16.63;12.60;;;;;;;12.14;66.11;102343.28;4961086;28;99947;-87
2021/12/14 10:49:04;;;;;;;14.77;11.87;;;;;;;12.16;66.61;102310.47;4968447;28;96994;-90
2021/12/14 10:51:33;;;;;;;17.37;12.70;;;;;;;12.15;66.22;102313.69;4948595;28;97214;-90
2021/12/14 10:54:00;;;;;;;14.47;11.97;;;;;;;12.17;66.42;102327.78;4946508;28;97592;-90
2021/12/14 10:56:31;;;;;;;14.93;12.23;;;;;;;12.21;66.54;102320.13;4946857;28;97037;-89
2021/12/14 10:58:59;;;;;;;17.00;13.03;;;;;;;12.19;66.36;102308.78;4945358;28;96997;-87
2021/12/14 11:01:33;;;;;;;17.27;12.77;;;;;;;12.18;66.36;102321.06;4946243;28;96757;-89
2021/12/14 11:04:12;;;;;;;16.13;11.87;;;;;;;12.20;66.23;102329.63;4946680;28;96890;-87
2021/12/14 11:06:42;;;;;;;16.97;13.20;;;;;;;12.22;66.33;102316.91;4933576;28;98795;-87
2021/12/14 11:09:42;;;;;;;15.70;12.67;;;;;;;12.22;65.79;102324.41;4947613;28;96744;-88
2021/12/14 11:12:20;;;;;;;15.00;11.90;;;;;;;12.22;66.17;102316.13;4940877;28;97081;-90
2021/12/14 11:14:47;;;;;;;14.80;12.57;;;;;;;12.21;66.29;102318.13;4945660;28;96958;-87
2021/12/14 11:20:21;;;;;;;14.63;11.57;;;;;;;12.26;66.21;102303.72;4939714;28;96971;-88
2021/12/14 11:23:03;;;;;;;17.17;12.83;;;;;;;12.27;66.07;102307.25;4925914;28;100254;-88
2021/12/14 11:25:32;;;;;;;18.70;13.13;;;;;;;12.27;66.38;102310.78;4946584;28;97022;-90
2021/12/14 11:28:06;;;;;;;17.13;12.07;;;;;;;12.30;66.18;102315.34;4943706;28;96822;-88
2021/12/14 11:31:03;;;;;;;16.40;12.40;;;;;;;12.29;66.05;102304.78;4939981;28;96964;-88
2021/12/14 11:33:59;;;;;;;13.57;11.27;;;;;;;12.33;66.09;102314.44;4935979;28;97593;-87
2021/12/14 11:36:38;;;;;;;18.50;11.73;;;;;;;12.36;66.15;102307.22;4942130;28;97283;-88
2021/12/14 11:39:25;;;;;;;16.03;12.17;;;;;;;12.36;66.13;102305.19;4946331;28;100180;-88
2021/12/14 11:41:58;;;;;;;16.57;12.27;;;;;;;12.32;66.25;102317.66;4944492;28;97239;-88
2021/12/14 11:44:37;;;;;;;17.20;12.40;;;;;;;12.29;66.23;102313.81;4945292;28;97400;-90
2021/12/14 11:47:06;;;;;;;15.90;11.57;;;;;;;12.28;66.38;102322.56;4946087;28;97001;-89
2021/12/14 11:49:55;;;;;;;16.00;12.40;;;;;;;12.26;66.39;102319.50;4943134;28;102240;-87
2021/12/14 11:52:52;;;;;;;15.70;12.30;;;;;;;12.22;66.42;102318.88;4942586;28;100695;-88
2021/12/14 11:55:29;;;;;;;17.30;12.23;;;;;;;12.17;66.56;102306.47;4944736;28;96989;-89
2021/12/14 11:58:11;;;;;;;18.50;12.60;;;;;;;12.14;66.77;102304.66;4945797;28;97028;-88
2021/12/14 12:00:44;;;;;;;17.67;13.20;;;;;;;12.15;66.82;102308.94;4938896;28;98204;-87
2021/12/14 12:03:43;;;;;;;15.10;11.87;;;;;;;12.17;66.74;102305.72;4943587;28;96721;-88
2021/12/14 12:06:13;;;;;;;17.87;12.17;;;;;;;12.15;66.69;102313.69;4946267;28;98622;-88
2021/12/14 12:11:37;;;;;;;20.10;13.17;;;;;;;12.15;66.89;102308.94;4945171;28;101472;-90
2021/12/14 12:14:17;;;;;;;18.10;13.20;;;;;;;12.16;66.93;102331.78;4947211;28;97848;-88
2021/12/14 12:16:42;;;;;;;14.50;11.40;;;;;;;12.14;66.80;102320.44;4945076;28;97314;-88